Home > Products > Valid Products > TAF

000
FTUS46 KHNX 041720
TAFMCE
TAF
KMCE 041720Z 0418/0518 32011KT P6SM SCT200=



000
FTUS46 KHNX 041720
TAFFAT
TAF
KFAT 041720Z 0418/0518 VRB04KT P6SM SCT200
     FM042300 31011KT P6SM BKN200
     FM051200 VRB04KT P6SM BKN200=



000
FTUS46 KHNX 041720
TAFBFL
TAF
KBFL 041720Z 0418/0518 VRB04KT P6SM SCT200
     FM042000 31012KT P6SM BKN200
     FM050900 VRB04KT P6SM BKN200=



000
FTUS46 KHNX 041125
TAFBFL
TAF
KBFL 041125Z 0412/0512 VRB04KT P6SM FEW200
     FM042000 31012KT P6SM BKN200
     FM050900 VRB04KT P6SM BKN200=



000
FTUS46 KHNX 041125
TAFFAT
TAF
KFAT 041125Z 0412/0512 31011KT P6SM SCT200=



000
FTUS46 KHNX 041125
TAFBFL
TAF
KBFL 041125Z 0412/0512 VRB04KT P6SM FEW200
     FM042000 31012KT P6SM BKN200
     FM050900 VRB04KT P6SM BKN200=



000
FTUS46 KHNX 041125
TAFFAT
TAF
KFAT 041125Z 0412/0512 31011KT P6SM SCT200=



000
FTUS46 KHNX 041125
TAFMCE
TAF
KMCE 041125Z 0412/0512 32011KT P6SM SCT200=



000
FTUS46 KHNX 041125
TAFMCE
TAF
KMCE 041125Z 0412/0512 32011KT P6SM SCT200=



000
FTUS46 KHNX 040520
TAFBFL
TAF
KBFL 040520Z 0406/0506 35005KT P6SM SCT200
     FM041700 VRB04KT P6SM BKN200
     FM042000 31012KT P6SM BKN200
     FM050400 35005KT P6SM BKN200=



000
FTUS46 KHNX 040520
TAFFAT
TAF
KFAT 040520Z 0406/0506 32014G21KT P6SM BKN200
     FM041100 32008KT P6SM BKN200
      TEMPO 0502/0506 32014G21KT=



000
FTUS46 KHNX 040520
TAFBFL
TAF
KBFL 040520Z 0406/0506 35005KT P6SM SCT200
     FM041700 VRB04KT P6SM BKN200
     FM042000 31012KT P6SM BKN200
     FM050400 35005KT P6SM BKN200=



000
FTUS46 KHNX 040520
TAFMCE
TAF
KMCE 040520Z 0406/0506 32011KT P6SM BKN200
      TEMPO 0502/0506 32014G21KT=



000
FTUS46 KHNX 040520
TAFMCE
TAF
KMCE 040520Z 0406/0506 32011KT P6SM BKN200
      TEMPO 0502/0506 32014G21KT=



000
FTUS46 KHNX 040520
TAFFAT
TAF
KFAT 040520Z 0406/0506 32014G21KT P6SM BKN200
     FM041100 32008KT P6SM BKN200
      TEMPO 0502/0506 32014G21KT=



000
FTUS46 KHNX 032320
TAFMCE
TAF
KMCE 032320Z 0400/0424 32013G20KT P6SM FEW250
     FM040600 32008KT P6SM SCT250
     FM041800 32011G21KT P6SM BKN200=



000
FTUS46 KHNX 032320
TAFMCE
TAF
KMCE 032320Z 0400/0424 32013G20KT P6SM FEW250
     FM040600 32008KT P6SM SCT250
     FM041800 32011G21KT P6SM BKN200=



000
FTUS46 KHNX 032320
TAFFAT
TAF
KFAT 032320Z 0400/0424 29008KT P6SM BKN250
     FM040200 32014G21KT P6SM SCT250
     FM041100 32008KT P6SM BKN200=



000
FTUS46 KHNX 032320
TAFFAT
TAF
KFAT 032320Z 0400/0424 29008KT P6SM BKN250
     FM040200 32014G21KT P6SM SCT250
     FM041100 32008KT P6SM BKN200=



000
FTUS46 KHNX 032320
TAFBFL
TAF
KBFL 032320Z 0400/0424 30012KT P6SM FEW250
     FM040400 35005KT P6SM SCT200
     FM041800 31012KT P6SM BKN200=



000
FTUS46 KHNX 032320
TAFBFL
TAF
KBFL 032320Z 0400/0424 30012KT P6SM FEW250
     FM040400 35005KT P6SM SCT200
     FM041800 31012KT P6SM BKN200=



000
FTUS46 KHNX 031726
TAFBFL
TAF
KBFL 031726Z 0318/0418 30005KT P6SM SKC
     FM032100 30012G20KT P6SM FEW250
     FM040400 35005KT P6SM SCT200=



000
FTUS46 KHNX 031726
TAFFAT
TAF
KFAT 031726Z 0318/0418 32008KT P6SM SCT250
     FM040200 32014G21KT P6SM SCT250
     FM041100 32008KT P6SM BKN200=



000
FTUS46 KHNX 031726
TAFMCE
TAF
KMCE 031726Z 0318/0418 32011KT P6SM SKC
     FM032100 32013G20KT P6SM FEW250
     FM040600 32008KT P6SM SCT250=



000
FTUS46 KHNX 031120
TAFFAT
TAF
KFAT 031120Z 0312/0412 32008KT P6SM SKC
     FM040200 32012G18KT P6SM SCT250=



000
FTUS46 KHNX 031120
TAFBFL
TAF
KBFL 031120Z 0312/0412 32005KT P6SM SKC
     FM032000 30009G18KT P6SM SKC
     FM040300 35005KT P6SM SKC=



000
FTUS46 KHNX 031120
TAFFAT
TAF
KFAT 031120Z 0312/0412 32008KT P6SM SKC
     FM040200 32012G18KT P6SM SCT250=



000
FTUS46 KHNX 031120
TAFMCE
TAF
KMCE 031120Z 0312/0412 33008KT P6SM SKC
     FM032100 32011G19KT P6SM SKC
     FM040600 32008KT P6SM SCT250=



000
FTUS46 KHNX 031120
TAFBFL
TAF
KBFL 031120Z 0312/0412 32005KT P6SM SKC
     FM032000 30009G18KT P6SM SKC
     FM040300 35005KT P6SM SKC=



000
FTUS46 KHNX 031120
TAFMCE
TAF
KMCE 031120Z 0312/0412 33008KT P6SM SKC
     FM032100 32011G19KT P6SM SKC
     FM040600 32008KT P6SM SCT250=



000
FTUS46 KHNX 030520
TAFBFL
TAF
KBFL 030520Z 0306/0406 36005KT P6SM SKC
     FM031900 30009G19KT P6SM SKC
     FM040300 35005KT P6SM SKC=



000
FTUS46 KHNX 030520
TAFBFL
TAF
KBFL 030520Z 0306/0406 36005KT P6SM SKC
     FM031900 30009G19KT P6SM SKC
     FM040300 35005KT P6SM SKC=



000
FTUS46 KHNX 030520
TAFMCE
TAF
KMCE 030520Z 0306/0406 33009KT P6SM FEW250
      TEMPO 0320/0324 33013G19KT=



000
FTUS46 KHNX 030520
TAFFAT
TAF
KFAT 030520Z 0306/0406 31013G19KT P6SM FEW250
     FM031200 32006KT P6SM SKC
     FM040200 32012G18KT P6SM SKC=



000
FTUS46 KHNX 030520
TAFMCE
TAF
KMCE 030520Z 0306/0406 33009KT P6SM FEW250
      TEMPO 0320/0324 33013G19KT=



000
FTUS46 KHNX 030520
TAFFAT
TAF
KFAT 030520Z 0306/0406 31013G19KT P6SM FEW250
     FM031200 32006KT P6SM SKC
     FM040200 32012G18KT P6SM SKC=



000
FTUS46 KHNX 022320
TAFBFL
TAF
KBFL 022320Z 0300/0324 31010KT P6SM FEW250
     FM030600 36005KT P6SM SCT250
     FM032000 30010KT P6SM SKC=



000
FTUS46 KHNX 022320
TAFMCE
TAF
KMCE 022320Z 0300/0324 33015KT P6SM FEW120 SCT250
     FM030600 32007KT P6SM SCT250
     FM031800 32012KT P6SM SKC=



000
FTUS46 KHNX 022320
TAFMCE
TAF
KMCE 022320Z 0300/0324 33015KT P6SM FEW120 SCT250
     FM030600 32007KT P6SM SCT250
     FM031800 32012KT P6SM SKC=



000
FTUS46 KHNX 022320
TAFBFL
TAF
KBFL 022320Z 0300/0324 31010KT P6SM FEW250
     FM030600 36005KT P6SM SCT250
     FM032000 30010KT P6SM SKC=



000
FTUS46 KHNX 022320
TAFFAT
TAF
KFAT 022320Z 0300/0324 31012KT P6SM FEW120 SCT250
     FM031000 32006KT P6SM SCT250=



000
FTUS46 KHNX 022320
TAFFAT
TAF
KFAT 022320Z 0300/0324 31012KT P6SM FEW120 SCT250
     FM031000 32006KT P6SM SCT250=



000
FTUS46 KHNX 021728
TAFMCE
TAF
KMCE 021728Z 0218/0318 33013KT P6SM FEW120 SCT250
     FM030600 32007KT P6SM SCT250=



000
FTUS46 KHNX 021728
TAFFAT
TAF
KFAT 021728Z 0218/0318 VRB03KT P6SM FEW120 SCT250
     FM022100 31012KT P6SM FEW120 SCT250
     FM031000 32006KT P6SM SCT250=



000
FTUS46 KHNX 021728
TAFBFL
TAF
KBFL 021728Z 0218/0318 29004KT P6SM FEW250
     FM022100 32010KT P6SM FEW250
     FM030600 36005KT P6SM SCT250=



000
FTUS46 KHNX 021728
TAFBFL
TAF
KBFL 021728Z 0218/0318 29004KT P6SM FEW250
     FM022100 32010KT P6SM FEW250
     FM030600 36005KT P6SM SCT250=



000
FTUS46 KHNX 021728
TAFFAT
TAF
KFAT 021728Z 0218/0318 VRB03KT P6SM FEW120 SCT250
     FM022100 31012KT P6SM FEW120 SCT250
     FM031000 32006KT P6SM SCT250=



000
FTUS46 KHNX 021728
TAFMCE
TAF
KMCE 021728Z 0218/0318 33013KT P6SM FEW120 SCT250
     FM030600 32007KT P6SM SCT250=



000
FTUS46 KHNX 021120
TAFMCE
TAF
KMCE 021120Z 0212/0312 33008KT P6SM SKC=



000
FTUS46 KHNX 021120
TAFBFL
TAF
KBFL 021120Z 0212/0312 33008KT P6SM SKC=



000
FTUS46 KHNX 021120
TAFMCE
TAF
KMCE 021120Z 0212/0312 33008KT P6SM SKC=



000
FTUS46 KHNX 021120
TAFFAT
TAF
KFAT 021120Z 0212/0312 30007KT P6SM SKC=



000
FTUS46 KHNX 021120
TAFFAT
TAF
KFAT 021120Z 0212/0312 30007KT P6SM SKC=



000
FTUS46 KHNX 021120
TAFBFL
TAF
KBFL 021120Z 0212/0312 33008KT P6SM SKC=



000
FTUS46 KHNX 020520
TAFBFL
TAF
KBFL 020520Z 0206/0306 34008KT P6SM SKC
     FM021000 VRB04KT P6SM SKC
     FM022000 30010KT P6SM SKC
     FM030300 35006KT P6SM SKC=



000
FTUS46 KHNX 020520
TAFFAT
TAF
KFAT 020520Z 0206/0306 31011KT P6SM FEW150
     FM020900 VRB04KT P6SM SKC
     FM022200 31010KT P6SM SCT130 SCT200=



000
FTUS46 KHNX 020520
TAFMCE
TAF
KMCE 020520Z 0206/0306 33010KT P6SM SKC
     FM021200 VRB04KT P6SM SKC
     FM022100 33010KT P6SM SKC=



000
FTUS46 KHNX 020305 AAA
TAFBFL
TAF AMD
KBFL 020305Z 0203/0224 35007KT P6SM SKC
     FM022000 30010KT P6SM SKC=



000
FTUS46 KHNX 020305 AAA
TAFBFL
TAF AMD
KBFL 020305Z 0203/0224 35007KT P6SM SKC
     FM022000 30010KT P6SM SKC=



000
FTUS46 KHNX 012320
TAFMCE
TAF
KMCE 012320Z 0200/0224 33012KT P6SM SCT120 SCT200
     FM020600 31006KT P6SM SKC=



000
FTUS46 KHNX 012320
TAFBFL
TAF
KBFL 012320Z 0200/0224 30012KT P6SM SCT120
     FM020600 35005KT P6SM SKC=



000
FTUS46 KHNX 012320
TAFMCE
TAF
KMCE 012320Z 0200/0224 33012KT P6SM SCT120 SCT200
     FM020600 31006KT P6SM SKC=



000
FTUS46 KHNX 012320
TAFFAT
TAF
KFAT 012320Z 0200/0224 32012KT P6SM SCT120 SCT200
     FM020900 32006KT P6SM SKC=



000
FTUS46 KHNX 012320
TAFBFL
TAF
KBFL 012320Z 0200/0224 30012KT P6SM SCT120
     FM020600 35005KT P6SM SKC=



000
FTUS46 KHNX 012320
TAFFAT
TAF
KFAT 012320Z 0200/0224 32012KT P6SM SCT120 SCT200
     FM020900 32006KT P6SM SKC=



    US Dept of Commerce
    National Oceanic and Atmospheric Administration
    National Weather Service
    1325 East West Highway
    Silver Spring, MD 20910
    Page Author: NWS Internet Services Team
Disclaimer
Information Quality
Credits
Glossary
Privacy Policy
Freedom of Information Act (FOIA)
About Us
Career Opportunities